Aviation Digital Data Service (ADDS)

Output produced by METARs form (1702 UTC 30 October 2020)
found at http://www.aviationweather.gov/metar/data/
 
TAPA 301600Z 10013KT 060V150 9999 SCT021 30/23 Q1014 NOSIG
TAPA 301500Z 10013KT 050V140 9999 SCT021 30/23 Q1014 NOSIG
TAPA 301400Z 10014KT 060V140 9999 FEW022 30/23 Q1015 NOSIG
TAF TAPA 301100Z 3012/3112 10014KT 9999 SCT020 
     PROB40 
     TEMPO 3012/3104 10016G29KT 
     PROB30 
     TEMPO 3012/3016 SHRA
       
TRPG 301600Z 10021KT 020V150 9999 SCT021 29/25 Q1014
TRPG 301500Z 09023KT 010V130 9999 SCT020 28/25 Q1015
TRPG 301400Z 10025G35KT 050V130 9999 SCT020 29/24 Q1015
TAF TRPG 301100Z 3012/3112 10016KT 9999 SCT020 
     PROB40 
     TEMPO 3012/3104 10018G30KT 
     PROB30 
     TEMPO 3012/3016 SHRA
       
TKPK 301600Z 10015KT 9999 FEW021 30/24 Q1014
TKPK 301500Z COR 09016KT 9999 FEW021 SCT048 30/24 Q1015
TKPK 301400Z 10016KT 9999 SCT021 30/24 Q1015
TKPK 301125Z 3012/3112 09015KT P6SM VCSH SCT018
       
TKPN 301600Z 09018KT 9999 FEW022 31/24 Q1013
TKPN 301500Z 10019KT 9999 SCT021 SCT050 31/24 Q1014
TKPN 301400Z 09018KT 9999 SCT021 29/24 Q1015
TAF TKPN 301100Z 3012/3112 10015KT 9999 SCT020 
     PROB40 
     TEMPO 3012/3104 10016G28KT 
     PROB30 
     TEMPO 3012/3016 SHRA
       
TQPF 301600Z 10018KT 9999 BKN018 30/24 Q1014 SLT HZ
TQPF 301500Z 10018KT 9999 SCT018 30/24 Q1014 SLT HZ
TQPF 301400Z 09018KT 9999 SCT018 30/24 Q1015 SLT HZ
TAF TQPF 301100Z 3012/3112 10015KT 9999 SCT020 
     PROB40 
     TEMPO 3012/3104 10017G29KT 
     PROB30 
     TEMPO 3012/3016 SHRA
       
TUPJ 301700Z 10014KT 10SM HZ SCT020 30/24 A2994 RMK Q1014 VIS16KM
TUPJ 301600Z 11015KT 10SM SCT020 30/24 A2997 RMK Q1014 VIS16KM
TUPJ 301500Z 10012KT 10SM SCT020 30/25 A2998 RMK Q1015 VIS16KM
TUPJ 301400Z 10013KT 10SM SCT020 30/25 A2999 RMK Q1015 VIS16KM
TAF TUPJ 301100Z 3012/3112 11014KT 9999 SCT018 
     PROB40 
     TEMPO 3012/3104 11015G26KT 
     PROB30 
     TEMPO 3012/3016 SHRA